Mielec, Poland
Current Conditions -  °F | °C
As of 6:00 PM on Sunday 23 Nov 2014 (Local Time) from EPRZ Reporting Station
Overcast Overcast  
Wind Chill: 29°   Ceiling: 1300
Heat Index: 34°   Visibility: 6mi
Dew Point: 30°   Wind: 6mph
Humidity: 87%   Direction: 70°ENE
Pressure: 30.48"   Gusts: NA
Location:  50.29°N, 21.43°E
Report Text: EPRZ 231600Z 07005KT 9999 OVC013 01/M01 Q1032
Loading
Personal Weather Stations






























Interactive Weather Map New forecast layout! Learn more

10-Day Weather Forecast

Advertisements
Track Severe Weather on mobile